Terminal Aerodrome Forecast
Issued by NWS

Home | Current Version | Previous Version | Graphics & Text | Print | Product List | Glossary On
Versions: 1 2 3 4 5 6 7 8 9 10 11 12 13 14 15 16 17 18
000
FTUS43 KICT 241738
TAFRSL
TAF
KRSL 241738Z 2418/2518 33012KT P6SM SCT018 OVC070
     FM242000 33015G25KT P6SM SCT100
     FM250000 VRB05KT P6SM SCT150
     FM250900 18010KT P6SM SKC
     FM251500 02015G25KT P6SM BKN100=

USA.gov is the U.S. government's official web portal to all federal, state and local government web resources and services.